Time;durP1;ratioP1;P1;durP2;ratioP2;P2;SDS_P1;SDS_P2;PMS_P1;PMS_P2;Temp;Humidity;BMP_temperature;BMP_pressure;BME280_temperature;BME280_humidity;BME280_pressure;Samples;Min_cycle;Max_cycle;Signal;HPM_P1;HPM_P2
2021/04/13 00:01:35;;;;;;;5.07;1.70;;;3.30;93.10;;;;;;4994783;28;20137;-37
2021/04/13 00:04:14;;;;;;;3.83;1.77;;;3.30;93.00;;;;;;4988294;28;20061;-39
2021/04/13 00:06:48;;;;;;;4.38;1.55;;;3.20;93.10;;;;;;4994245;28;20502;-38
2021/04/13 00:09:22;;;;;;;2.55;1.45;;;3.20;93.10;;;;;;4989322;28;20053;-38
2021/04/13 00:11:51;;;;;;;3.88;1.85;;;3.20;93.10;;;;;;4994637;28;20061;-39
2021/04/13 00:14:20;;;;;;;4.95;1.75;;;3.20;93.30;;;;;;4988071;28;20478;-37
2021/04/13 00:16:50;;;;;;;3.22;1.30;;;3.20;93.50;;;;;;4996666;28;20038;-38
2021/04/13 00:19:39;;;;;;;4.85;1.52;;;3.20;93.40;;;;;;4987908;28;20029;-39
2021/04/13 00:22:05;;;;;;;5.55;2.10;;;3.30;93.70;;;;;;4996798;28;20033;-39
2021/04/13 00:24:30;;;;;;;2.55;1.67;;;3.30;93.70;;;;;;5004525;28;20029;-43
2021/04/13 00:26:59;;;;;;;4.25;2.00;;;3.40;93.70;;;;;;4994516;28;20033;-38
2021/04/13 00:29:28;;;;;;;6.32;1.75;;;3.40;94.00;;;;;;5004417;28;20030;-37
2021/04/13 00:31:56;;;;;;;7.65;2.00;;;3.50;94.00;;;;;;4994800;28;20098;-35
2021/04/13 00:34:26;;;;;;;3.67;1.50;;;3.50;93.90;;;;;;5005204;28;20046;-38
2021/04/13 00:37:10;;;;;;;4.22;2.13;;;3.60;93.80;;;;;;4993970;28;20088;-37
2021/04/13 00:39:36;;;;;;;6.43;2.00;;;3.60;93.80;;;;;;5004146;28;20109;-33
2021/04/13 00:42:08;;;;;;;3.42;1.83;;;3.60;93.90;;;;;;4999557;28;20026;-39
2021/04/13 00:44:41;;;;;;;4.22;1.85;;;3.60;93.70;;;;;;5006109;28;20140;-38
2021/04/13 00:47:17;;;;;;;6.32;1.58;;;3.50;93.70;;;;;;4992702;28;20022;-34
2021/04/13 00:49:48;;;;;;;4.22;1.73;;;3.50;93.80;;;;;;5005507;28;20037;-37
2021/04/13 00:52:19;;;;;;;3.25;1.70;;;3.40;93.80;;;;;;4998088;28;20457;-39
2021/04/13 00:54:50;;;;;;;5.55;1.50;;;3.30;93.80;;;;;;4984494;28;20157;-38
2021/04/13 00:57:30;;;;;;;4.57;1.60;;;3.30;93.80;;;;;;4992545;28;20152;-38
2021/04/13 00:59:57;;;;;;;5.38;1.45;;;3.30;93.90;;;;;;5000418;28;20029;-36
2021/04/13 01:02:27;;;;;;;4.68;1.60;;;3.20;93.90;;;;;;5000455;28;20032;-39
2021/04/13 01:04:57;;;;;;;2.47;1.17;;;3.20;93.90;;;;;;4984736;28;20045;-39
2021/04/13 01:07:44;;;;;;;3.83;1.73;;;3.20;93.90;;;;;;4996635;28;20553;-39
2021/04/13 01:10:27;;;;;;;4.40;1.45;;;3.10;94.00;;;;;;4999029;28;20061;-36
2021/04/13 01:13:08;;;;;;;1.67;1.20;;;3.10;94.10;;;;;;4997325;28;20466;-37
2021/04/13 01:15:35;;;;;;;2.45;1.52;;;3.20;94.10;;;;;;5002069;28;20037;-39
2021/04/13 01:18:04;;;;;;;3.70;1.50;;;3.30;94.10;;;;;;4997214;28;20415;-38
2021/04/13 01:21:04;;;;;;;3.63;1.60;;;3.30;94.20;;;;;;5004215;28;20095;-38
2021/04/13 01:24:06;;;;;;;4.47;2.20;;;3.40;94.10;;;;;;4967337;28;20034;-35
2021/04/13 01:26:29;;;;;;;2.38;1.55;;;3.40;94.30;;;;;;5003233;28;20092;-36
2021/04/13 01:28:54;;;;;;;3.63;1.63;;;3.30;94.20;;;;;;4993544;28;20026;-38
2021/04/13 01:31:48;;;;;;;4.18;1.50;;;3.20;94.20;;;;;;5004001;28;20026;-38
2021/04/13 01:34:24;;;;;;;3.47;1.20;;;3.10;94.20;;;;;;5004250;28;20048;-37
2021/04/13 01:37:09;;;;;;;5.30;1.77;;;3.10;94.30;;;;;;5003265;28;20026;-39
2021/04/13 01:39:44;;;;;;;3.83;1.70;;;3.00;94.40;;;;;;4989223;28;20053;-39
2021/04/13 01:42:12;;;;;;;2.40;1.40;;;3.00;94.40;;;;;;4992214;28;20422;-39
2021/04/13 01:44:41;;;;;;;3.05;1.48;;;3.10;94.50;;;;;;4994106;28;20037;-37
2021/04/13 01:47:11;;;;;;;4.63;1.58;;;3.10;94.40;;;;;;4994536;28;20806;-38
2021/04/13 01:49:49;;;;;;;2.70;1.70;;;3.10;94.30;;;;;;5002318;28;20389;-37
2021/04/13 01:52:24;;;;;;;4.22;1.55;;;3.00;94.40;;;;;;5003277;28;20026;-38
2021/04/13 01:54:50;;;;;;;2.55;1.90;;;2.90;94.40;;;;;;4990223;28;20149;-37
2021/04/13 01:57:36;;;;;;;3.40;2.10;;;2.90;94.50;;;;;;4986240;28;20081;-37
2021/04/13 02:00:13;;;;;;;2.08;1.88;;;2.80;94.50;;;;;;4996221;28;20037;-39
2021/04/13 02:02:45;;;;;;;3.08;1.83;;;2.70;94.50;;;;;;4986049;28;20465;-38
2021/04/13 02:05:14;;;;;;;3.97;1.83;;;2.60;94.60;;;;;;4995515;28;20517;-38
2021/04/13 02:10:28;;;;;;;4.18;2.47;;;2.50;94.70;;;;;;5003818;28;20128;-38
2021/04/13 02:13:26;;;;;;;3.05;2.17;;;2.40;94.70;;;;;;5002645;28;20038;-38
2021/04/13 02:16:06;;;;;;;3.30;2.15;;;2.40;94.80;;;;;;4972075;28;20095;-38
2021/04/13 02:18:45;;;;;;;3.42;2.22;;;2.30;94.80;;;;;;4999918;28;20581;-35
2021/04/13 02:21:29;;;;;;;2.33;1.70;;;2.20;94.90;;;;;;5002008;28;20459;-38
2021/04/13 02:24:33;;;;;;;2.78;2.00;;;2.20;95.00;;;;;;4990725;28;20840;-38
2021/04/13 02:27:00;;;;;;;;;;;2.10;95.00;;;;;;4937563;29;20043;-38
2021/04/13 02:29:35;;;;;;;1.60;1.50;;;2.10;95.10;;;;;;4983884;28;19933;-38
2021/04/13 02:32:05;;;;;;;4.40;1.88;;;2.10;95.00;;;;;;5002035;28;20060;-38
2021/04/13 02:34:42;;;;;;;2.28;1.40;;;2.10;95.10;;;;;;4999342;28;20046;-39
2021/04/13 02:37:12;;;;;;;3.72;1.65;;;2.10;95.10;;;;;;5001695;28;20037;-37
2021/04/13 02:39:40;;;;;;;5.32;1.63;;;2.10;95.20;;;;;;5003708;28;20030;-38
2021/04/13 02:42:20;;;;;;;3.30;1.05;;;2.10;95.20;;;;;;5006108;28;20029;-38
2021/04/13 02:45:09;;;;;;;1.80;1.20;;;2.10;95.20;;;;;;4999239;28;20101;-37
2021/04/13 02:47:43;;;;;;;3.20;1.23;;;2.10;95.20;;;;;;4990837;28;20046;-38
2021/04/13 02:50:14;;;;;;;2.63;1.35;;;2.20;95.20;;;;;;4994237;28;20045;-35
2021/04/13 02:52:44;;;;;;;5.38;1.58;;;2.20;95.30;;;;;;5005578;28;20026;-40
2021/04/13 02:55:22;;;;;;;3.70;2.00;;;2.20;95.40;;;;;;5003507;28;20034;-38
2021/04/13 02:57:50;;;;;;;3.50;1.60;;;2.20;95.40;;;;;;5006244;28;20047;-37
2021/04/13 03:00:30;;;;;;;2.10;1.40;;;2.20;95.30;;;;;;5001188;28;20026;-37
2021/04/13 03:03:18;;;;;;;3.22;1.65;;;2.20;95.70;;;;;;4989473;28;20026;-38
2021/04/13 03:05:50;;;;;;;3.88;1.80;;;2.20;95.40;;;;;;4995204;28;20062;-38
2021/04/13 03:08:17;;;;;;;4.00;2.20;;;2.10;95.40;;;;;;4991087;28;20030;-38
2021/04/13 03:10:47;;;;;;;4.15;2.35;;;2.10;95.50;;;;;;4993687;28;20545;-35
2021/04/13 03:13:18;;;;;;;3.45;2.50;;;2.00;95.50;;;;;;4992706;28;20157;-39
2021/04/13 03:15:51;;;;;;;4.75;2.30;;;2.00;95.60;;;;;;4991956;28;20412;-39
2021/04/13 03:18:20;;;;;;;3.05;1.90;;;2.00;95.70;;;;;;4994625;28;20026;-39
2021/04/13 03:20:50;;;;;;;3.10;1.90;;;1.90;95.70;;;;;;4990947;28;20097;-39
2021/04/13 03:23:18;;;;;;;4.22;2.22;;;1.90;95.70;;;;;;4995222;28;20030;-36
2021/04/13 03:25:55;;;;;;;5.88;2.40;;;1.90;95.80;;;;;;4989315;28;20368;-38
2021/04/13 03:28:32;;;;;;;2.97;2.05;;;1.90;95.90;;;;;;4995328;28;20034;-39
2021/04/13 03:30:59;;;;;;;2.80;2.10;;;1.90;95.90;;;;;;4989084;28;20080;-39
2021/04/13 03:33:31;;;;;;;4.00;2.13;;;1.90;95.90;;;;;;4996274;28;20661;-37
2021/04/13 03:36:10;;;;;;;3.92;2.17;;;1.80;95.90;;;;;;4987671;28;20450;-39
2021/04/13 03:38:37;;;;;;;3.13;2.30;;;1.80;96.20;;;;;;4997350;28;20381;-38
2021/04/13 03:41:09;;;;;;;4.72;2.53;;;1.80;96.00;;;;;;5004681;28;20029;-38
2021/04/13 03:43:35;;;;;;;2.58;2.28;;;1.90;96.10;;;;;;4995981;28;20029;-37
2021/04/13 03:46:04;;;;;;;2.47;2.22;;;1.90;96.00;;;;;;5005273;28;20025;-39
2021/04/13 03:48:32;;;;;;;5.13;2.17;;;2.00;96.00;;;;;;4995291;28;20025;-37
2021/04/13 03:51:24;;;;;;;3.05;2.60;;;2.00;96.00;;;;;;5005054;28;20030;-39
2021/04/13 03:53:49;;;;;;;2.88;2.30;;;2.00;95.90;;;;;;4997718;28;20149;-37
2021/04/13 03:56:18;;;;;;;2.15;2.00;;;1.90;95.90;;;;;;4988146;28;20113;-39
2021/04/13 03:58:58;;;;;;;2.40;1.98;;;1.90;95.90;;;;;;4997317;28;20034;-38
2021/04/13 04:01:34;;;;;;;2.88;2.03;;;1.80;96.00;;;;;;4987935;28;20022;-38
2021/04/13 04:04:03;;;;;;;2.10;1.77;;;1.80;96.00;;;;;;4997334;28;20041;-36
2021/04/13 04:07:05;;;;;;;3.17;1.88;;;1.70;96.10;;;;;;4987162;28;20035;-38
2021/04/13 04:09:31;;;;;;;2.35;1.75;;;1.70;96.10;;;;;;4997060;28;20081;-45
2021/04/13 04:11:59;;;;;;;4.65;2.78;;;1.60;96.10;;;;;;4987364;28;20053;-36
2021/04/13 04:14:27;;;;;;;3.33;2.17;;;1.60;96.40;;;;;;4997300;28;20036;-39
2021/04/13 04:17:13;;;;;;;2.67;1.90;;;1.60;96.20;;;;;;4987966;28;20022;-39
2021/04/13 04:19:39;;;;;;;4.65;2.53;;;1.60;96.20;;;;;;4996631;28;20462;-38
2021/04/13 04:22:09;;;;;;;5.20;2.78;;;1.60;96.20;;;;;;4986922;28;20045;-37
2021/04/13 04:24:43;;;;;;;3.95;2.38;;;1.60;96.20;;;;;;4997232;28;20026;-39
2021/04/13 04:27:25;;;;;;;2.63;2.30;;;1.60;96.20;;;;;;4986781;28;20029;-38
2021/04/13 04:30:11;;;;;;;4.57;2.80;;;1.50;96.60;;;;;;4997089;28;20421;-38
2021/04/13 04:32:42;;;;;;;4.15;2.78;;;1.50;96.40;;;;;;4986795;28;20133;-40
2021/04/13 04:35:11;;;;;;;3.70;2.58;;;1.40;96.40;;;;;;4998924;28;20189;-39
2021/04/13 04:37:46;;;;;;;4.55;2.65;;;1.40;96.40;;;;;;5004422;28;20026;-37
2021/04/13 04:40:14;;;;;;;3.47;2.97;;;1.40;96.50;;;;;;4994060;28;20493;-39
2021/04/13 04:43:02;;;;;;;3.38;2.60;;;1.40;96.60;;;;;;4993682;28;20404;-38
2021/04/13 04:45:38;;;;;;;4.50;3.20;;;1.30;96.60;;;;;;4997095;28;20124;-40
2021/04/13 04:48:24;;;;;;;5.30;3.33;;;1.30;96.60;;;;;;4986853;28;20560;-40
2021/04/13 04:50:54;;;;;;;4.72;2.60;;;1.20;96.60;;;;;;4994674;28;20018;-38
2021/04/13 04:53:21;;;;;;;2.78;2.58;;;1.20;96.60;;;;;;5000307;28;20042;-39
2021/04/13 04:55:51;;;;;;;3.72;3.20;;;1.20;96.60;;;;;;4999211;28;20049;-37
2021/04/13 04:58:17;;;;;;;4.90;2.95;;;1.20;96.70;;;;;;5000965;28;20046;-37
2021/04/13 05:00:42;;;;;;;4.32;3.33;;;1.20;96.70;;;;;;4992414;28;20026;-39
2021/04/13 05:03:08;;;;;;;4.93;3.20;;;1.20;96.80;;;;;;5005295;28;20018;-40
2021/04/13 05:05:33;;;;;;;4.75;3.63;;;1.20;96.80;;;;;;4998317;28;20105;-39
2021/04/13 05:07:59;;;;;;;5.03;3.83;;;1.20;96.80;;;;;;4985296;28;20023;-39
2021/04/13 05:10:25;;;;;;;4.85;3.22;;;1.10;96.80;;;;;;4990812;28;20030;-36
2021/04/13 05:12:50;;;;;;;5.68;4.10;;;1.20;96.90;;;;;;4993906;28;20041;-38
2021/04/13 05:15:16;;;;;;;3.53;3.10;;;1.10;96.90;;;;;;5004178;28;20598;-38
2021/04/13 05:17:41;;;;;;;6.15;3.80;;;1.20;96.90;;;;;;4988105;28;20553;-38
2021/04/13 05:20:07;;;;;;;3.92;3.50;;;1.20;96.90;;;;;;4992212;28;20033;-39
2021/04/13 05:22:33;;;;;;;6.63;3.45;;;1.20;97.00;;;;;;4990206;28;20238;-39
2021/04/13 05:24:58;;;;;;;5.25;3.47;;;1.20;96.90;;;;;;4990043;28;20169;-37
2021/04/13 05:27:24;;;;;;;3.88;2.90;;;1.20;97.00;;;;;;4992974;28;20160;-38
2021/04/13 05:29:49;;;;;;;3.95;2.78;;;1.20;97.00;;;;;;4986490;28;20096;-39
2021/04/13 05:32:15;;;;;;;4.07;2.95;;;1.20;97.00;;;;;;4995661;28;20105;-39
2021/04/13 05:34:40;;;;;;;4.80;3.15;;;1.20;97.00;;;;;;4986153;28;20038;-39
2021/04/13 05:37:08;;;;;;;3.80;3.03;;;1.20;97.00;;;;;;4995208;28;20029;-37
2021/04/13 05:39:34;;;;;;;7.30;3.03;;;1.20;97.00;;;;;;4985558;28;20124;-39
2021/04/13 05:42:00;;;;;;;4.47;3.22;;;1.20;97.00;;;;;;4993833;28;20475;-39
2021/04/13 05:44:25;;;;;;;2.95;2.65;;;1.30;97.10;;;;;;4984684;28;20041;-38
2021/04/13 05:46:52;;;;;;;4.35;2.90;;;1.30;97.10;;;;;;4997510;28;20398;-36
2021/04/13 05:49:19;;;;;;;5.63;2.92;;;1.30;97.10;;;;;;4984912;28;20049;-37
2021/04/13 05:51:44;;;;;;;4.50;2.50;;;1.30;97.10;;;;;;4989895;28;20478;-39
2021/04/13 05:54:10;;;;;;;5.32;3.03;;;1.40;97.10;;;;;;5000568;28;20048;-36
2021/04/13 05:56:40;;;;;;;4.50;3.20;;;1.40;97.10;;;;;;4999347;28;20021;-40
2021/04/13 05:59:08;;;;;;;4.68;2.92;;;1.40;97.10;;;;;;5000896;28;20099;-40
2021/04/13 06:01:35;;;;;;;3.17;2.50;;;1.40;97.10;;;;;;5001059;28;20182;-37
2021/04/13 06:04:02;;;;;;;4.38;3.10;;;1.50;97.10;;;;;;4989330;28;20026;-39
2021/04/13 06:06:27;;;;;;;5.60;3.10;;;1.50;97.00;;;;;;4990789;28;20010;-35
2021/04/13 06:08:53;;;;;;;3.65;2.90;;;1.60;97.10;;;;;;4993163;28;20093;-39
2021/04/13 06:11:30;;;;;;;3.08;2.60;;;1.60;97.00;;;;;;4989470;28;20015;-37
2021/04/13 06:13:58;;;;;;;2.47;2.28;;;1.60;97.00;;;;;;4995412;28;20683;-39
2021/04/13 06:16:27;;;;;;;4.35;3.00;;;1.60;97.30;;;;;;5000367;28;20021;-37
2021/04/13 06:18:53;;;;;;;4.53;2.67;;;1.70;97.00;;;;;;4997453;28;20030;-39
2021/04/13 06:21:21;;;;;;;5.65;3.03;;;1.70;97.00;;;;;;4991647;28;20073;-37
2021/04/13 06:23:47;;;;;;;4.45;2.72;;;1.80;96.90;;;;;;4996395;28;20105;-38
2021/04/13 06:26:13;;;;;;;4.03;2.97;;;1.90;97.00;;;;;;5006398;28;20063;-37
2021/04/13 06:28:38;;;;;;;4.30;3.10;;;1.90;96.90;;;;;;4999377;28;20169;-35
2021/04/13 06:31:04;;;;;;;4.18;2.90;;;1.90;96.90;;;;;;4988178;28;20037;-37
2021/04/13 06:33:31;;;;;;;5.55;3.08;;;2.00;96.90;;;;;;4999585;28;20076;-38
2021/04/13 06:36:01;;;;;;;3.90;2.97;;;2.00;96.90;;;;;;4988676;28;20027;-39
2021/04/13 06:38:30;;;;;;;3.92;2.53;;;2.10;96.90;;;;;;4999520;28;20036;-39
2021/04/13 06:41:41;;;;;;;5.38;3.45;;;2.10;96.90;;;;;;4988188;28;20026;-39
2021/04/13 06:44:31;;;;;;;6.90;3.65;;;2.10;96.90;;;;;;4961165;28;20819;-39
2021/04/13 06:47:33;;;;;;;4.97;3.35;;;2.20;96.90;;;;;;5005393;28;20052;-35
2021/04/13 06:50:16;;;;;;;3.10;2.55;;;2.30;96.90;;;;;;4997440;28;20038;-34
2021/04/13 06:53:02;;;;;;;5.30;3.10;;;2.40;96.80;;;;;;5003813;28;20201;-37
2021/04/13 06:55:36;;;;;;;6.78;3.17;;;2.50;96.80;;;;;;5000334;28;20045;-36
2021/04/13 06:58:21;;;;;;;4.13;2.70;;;2.60;96.70;;;;;;5002732;28;20165;-38
2021/04/13 07:01:07;;;;;;;5.47;3.03;;;2.70;96.70;;;;;;5000431;28;20096;-38
2021/04/13 07:03:43;;;;;;;5.22;2.83;;;2.80;96.80;;;;;;5000505;28;20026;-40
2021/04/13 07:06:26;;;;;;;4.25;2.45;;;2.90;96.80;;;;;;5001701;28;20034;-39
2021/04/13 07:09:03;;;;;;;6.25;2.78;;;3.00;96.70;;;;;;4998725;28;20057;-41
2021/04/13 07:11:38;;;;;;;7.70;2.45;;;3.10;97.20;;;;;;5004131;28;20349;-37
2021/04/13 07:14:20;;;;;;;8.35;2.40;;;3.30;97.60;;;;;;4998376;28;20779;-40
2021/04/13 07:17:20;;;;;;;9.43;2.42;;;3.50;97.10;;;;;;5005052;28;20034;-36
2021/04/13 07:19:56;;;;;;;7.97;2.95;;;3.60;97.00;;;;;;4993814;28;20757;-38
2021/04/13 07:22:28;;;;;;;4.57;2.03;;;3.80;96.80;;;;;;4987588;28;20367;-39
2021/04/13 07:25:05;;;;;;;4.07;1.80;;;3.90;96.70;;;;;;4999054;28;20060;-37
2021/04/13 07:27:51;;;;;;;12.18;2.40;;;3.90;96.50;;;;;;4986676;28;20033;-40
2021/04/13 07:30:37;;;;;;;7.95;2.40;;;4.10;96.40;;;;;;4999705;28;20076;-38
2021/04/13 07:33:06;;;;;;;8.35;2.80;;;4.20;96.30;;;;;;4987466;28;20022;-39
2021/04/13 07:35:35;;;;;;;8.02;2.25;;;4.30;96.20;;;;;;4998047;28;20106;-38
2021/04/13 07:38:22;;;;;;;4.78;2.10;;;4.40;96.10;;;;;;4986715;28;20023;-39
2021/04/13 07:40:51;;;;;;;5.53;2.35;;;4.50;96.00;;;;;;4998750;28;20398;-38
2021/04/13 07:43:25;;;;;;;9.23;1.95;;;4.70;95.70;;;;;;5001152;28;20033;-36
2021/04/13 07:46:12;;;;;;;7.15;2.10;;;4.80;95.50;;;;;;4993528;28;20477;-39
2021/04/13 07:48:59;;;;;;;5.75;1.70;;;4.90;95.00;;;;;;5005198;28;20487;-39
2021/04/13 07:51:42;;;;;;;8.63;1.50;;;5.10;94.60;;;;;;4994966;28;20065;-36
2021/04/13 07:54:29;;;;;;;3.20;1.60;;;5.20;94.40;;;;;;4993355;28;20049;-39
2021/04/13 07:57:26;;;;;;;8.20;1.60;;;5.40;94.20;;;;;;4997005;28;20026;-39
2021/04/13 07:59:55;;;;;;;5.00;1.25;;;5.40;93.50;;;;;;4988409;28;20081;-37
2021/04/13 08:02:22;;;;;;;10.70;1.33;;;5.60;93.00;;;;;;4997038;28;20030;-40
2021/04/13 08:04:51;;;;;;;6.22;1.70;;;5.60;92.50;;;;;;4987346;28;20452;-38
2021/04/13 08:07:24;;;;;;;7.32;1.38;;;5.70;92.40;;;;;;5004367;28;20163;-38
2021/04/13 08:10:08;;;;;;;6.25;1.30;;;5.80;91.30;;;;;;4987217;28;20113;-39
2021/04/13 08:12:49;;;;;;;6.32;1.65;;;5.80;91.70;;;;;;4987284;28;20073;-38
2021/04/13 08:15:17;;;;;;;5.97;1.13;;;5.90;91.40;;;;;;5000243;28;20053;-39
2021/04/13 08:17:53;;;;;;;4.22;1.30;;;6.00;90.60;;;;;;5002031;28;20349;-37
2021/04/13 08:20:46;;;;;;;5.00;1.65;;;6.10;90.80;;;;;;4991752;28;20028;-39
2021/04/13 08:23:36;;;;;;;3.10;1.00;;;6.30;90.90;;;;;;4991874;28;20029;-39
2021/04/13 08:26:39;;;;;;;8.63;1.25;;;6.30;88.40;;;;;;4994806;28;20018;-37
2021/04/13 08:29:35;;;;;;;8.07;2.05;;;6.30;88.70;;;;;;4904074;29;20084;-39
2021/04/13 08:32:53;;;;;;;8.00;1.45;;;6.30;88.50;;;;;;4990056;28;20030;-39
2021/04/13 08:35:35;;;;;;;3.42;1.20;;;6.30;88.70;;;;;;4989741;28;20065;-39
2021/04/13 08:38:29;;;;;;;7.10;1.30;;;6.40;88.00;;;;;;4999268;28;20032;-40
2021/04/13 08:41:03;;;;;;;;;;;6.50;86.20;;;;;;4997523;28;20176;-40
2021/04/13 08:43:45;;;;;;;3.75;1.33;;;6.50;85.00;;;;;;4996851;28;19925;-39
2021/04/13 08:46:45;;;;;;;4.47;1.40;;;6.60;86.50;;;;;;4997215;28;20026;-39
2021/04/13 08:49:32;;;;;;;7.00;1.42;;;6.60;84.80;;;;;;4986191;28;20116;-39
2021/04/13 08:52:41;;;;;;;5.88;1.30;;;6.60;84.60;;;;;;4982332;28;20064;-37
2021/04/13 08:55:12;;;;;;;4.75;1.13;;;6.70;85.60;;;;;;4982269;28;20188;-39
2021/04/13 08:57:45;;;;;;;3.72;1.25;;;6.80;85.90;;;;;;4991162;28;20025;-39
2021/04/13 09:00:34;;;;;;;3.83;1.00;;;6.90;83.80;;;;;;4991754;28;20064;-39
2021/04/13 09:03:04;;;;;;;4.43;0.95;;;7.10;82.80;;;;;;4995076;28;20030;-38
2021/04/13 09:05:32;;;;;;;3.25;0.90;;;7.20;80.90;;;;;;4989531;28;20105;-39
2021/04/13 09:08:07;;;;;;;3.30;0.80;;;7.20;78.50;;;;;;4998106;28;20030;-39
2021/04/13 09:11:03;;;;;;;4.22;0.85;;;7.30;77.70;;;;;;5005067;28;20061;-39
2021/04/13 09:13:39;;;;;;;5.75;1.38;;;7.30;77.80;;;;;;4992214;28;20057;-39
2021/04/13 09:16:08;;;;;;;3.33;0.90;;;7.30;77.60;;;;;;4994610;28;20164;-40
2021/04/13 09:18:51;;;;;;;4.30;1.10;;;7.30;78.60;;;;;;4992987;28;20048;-40
2021/04/13 09:21:44;;;;;;;5.22;1.13;;;7.30;77.80;;;;;;4997646;28;20144;-40
2021/04/13 09:24:20;;;;;;;4.95;0.90;;;7.40;78.90;;;;;;4993193;28;20053;-40
2021/04/13 09:27:23;;;;;;;3.10;0.82;;;7.50;78.30;;;;;;5000998;28;20120;-39
2021/04/13 09:29:51;;;;;;;3.75;1.10;;;7.50;76.20;;;;;;4995758;28;20453;-38
2021/04/13 09:32:23;;;;;;;6.28;1.20;;;7.50;75.80;;;;;;4985975;28;20169;-38
2021/04/13 09:35:14;;;;;;;5.15;1.17;;;7.60;76.80;;;;;;4991952;28;20042;-36
2021/04/13 09:38:14;;;;;;;4.47;1.33;;;7.60;76.40;;;;;;5002910;28;20033;-39
2021/04/13 09:41:12;;;;;;;5.45;1.08;;;7.70;75.00;;;;;;4994912;28;20040;-39
2021/04/13 09:43:52;;;;;;;5.85;1.02;;;7.90;76.10;;;;;;4992458;28;20088;-39
2021/04/13 09:46:41;;;;;;;5.20;1.10;;;8.00;76.50;;;;;;4991009;28;20030;-39
2021/04/13 09:49:50;;;;;;;4.18;1.10;;;7.90;75.10;;;;;;4991244;28;20022;-38
2021/04/13 09:52:37;;;;;;;4.35;1.13;;;8.00;74.60;;;;;;4996359;28;20263;-39
2021/04/13 09:55:21;;;;;;;3.60;1.00;;;8.10;73.20;;;;;;4991625;28;20089;-39
2021/04/13 09:58:09;;;;;;;6.05;1.40;;;8.30;73.80;;;;;;5004202;28;20038;-40
2021/04/13 10:01:09;;;;;;;4.28;1.30;;;8.30;74.10;;;;;;4991841;28;20438;-36
2021/04/13 10:03:50;;;;;;;3.47;1.20;;;8.40;73.30;;;;;;5002169;28;20366;-39
2021/04/13 10:06:16;;;;;;;3.33;1.10;;;8.20;71.50;;;;;;4993143;28;20603;-37
2021/04/13 10:08:47;;;;;;;3.80;1.08;;;8.10;73.00;;;;;;5003353;28;20335;-38
2021/04/13 10:11:41;;;;;;;4.32;1.23;;;8.00;73.10;;;;;;4995028;28;20041;-37
2021/04/13 10:14:18;;;;;;;3.95;1.13;;;8.00;72.60;;;;;;4985808;28;20046;-37
2021/04/13 10:17:01;;;;;;;5.28;1.50;;;8.00;72.70;;;;;;4997613;28;20592;-36
2021/04/13 10:19:47;;;;;;;3.65;1.00;;;8.10;72.10;;;;;;4994676;28;20502;-38
2021/04/13 10:22:26;;;;;;;3.83;0.98;;;8.20;72.80;;;;;;4995590;28;20180;-39
2021/04/13 10:25:18;;;;;;;5.10;0.90;;;8.30;72.60;;;;;;4992088;28;20027;-39
2021/04/13 10:28:08;;;;;;;3.30;1.00;;;8.40;72.00;;;;;;4991610;28;20053;-39
2021/04/13 10:31:02;;;;;;;3.17;1.30;;;8.40;69.10;;;;;;4990058;28;20377;-37
2021/04/13 10:34:05;;;;;;;2.63;1.13;;;8.50;67.70;;;;;;4994332;28;20679;-39
2021/04/13 10:36:52;;;;;;;2.72;0.88;;;8.60;69.60;;;;;;4996419;28;20053;-38
2021/04/13 10:39:39;;;;;;;2.45;0.80;;;8.70;69.00;;;;;;5001773;28;20040;-38
2021/04/13 10:42:42;;;;;;;2.08;0.80;;;8.80;70.30;;;;;;4992063;28;20058;-38
2021/04/13 10:45:31;;;;;;;4.25;0.90;;;9.00;69.70;;;;;;4988372;28;20022;-39
2021/04/13 10:48:40;;;;;;;2.88;1.00;;;9.10;66.60;;;;;;4997873;28;20408;-38
2021/04/13 10:51:27;;;;;;;3.97;0.98;;;9.10;67.00;;;;;;5000433;28;20018;-38
2021/04/13 10:54:11;;;;;;;4.68;1.10;;;8.90;66.80;;;;;;5003682;28;20085;-37
2021/04/13 10:56:58;;;;;;;2.28;0.90;;;8.80;65.20;;;;;;4998272;28;20031;-37
2021/04/13 10:59:45;;;;;;;2.03;1.02;;;8.80;65.80;;;;;;5005948;28;20018;-38
2021/04/13 11:02:33;;;;;;;3.38;1.00;;;8.90;64.90;;;;;;4999524;28;20041;-39
2021/04/13 11:05:37;;;;;;;2.67;0.70;;;9.00;64.50;;;;;;4986827;28;20105;-39
2021/04/13 11:08:17;;;;;;;2.33;1.13;;;9.10;66.30;;;;;;4994728;28;20062;-40
2021/04/13 11:11:04;;;;;;;3.83;0.90;;;9.20;64.40;;;;;;5005561;28;20105;-40
2021/04/13 11:14:03;;;;;;;1.90;0.88;;;9.20;63.60;;;;;;4998289;28;20104;-40
2021/04/13 11:16:51;;;;;;;6.75;1.40;;;9.10;60.20;;;;;;4989547;28;20041;-38
2021/04/13 11:19:34;;;;;;;3.25;1.00;;;9.10;60.70;;;;;;4994567;28;20490;-37
2021/04/13 11:22:11;;;;;;;2.30;0.88;;;9.10;62.60;;;;;;4992126;28;20159;-36
2021/04/13 11:25:06;;;;;;;2.28;1.00;;;9.20;60.60;;;;;;4993428;28;20038;-39
2021/04/13 11:27:46;;;;;;;2.80;0.90;;;9.20;58.60;;;;;;4994972;28;20033;-38
2021/04/13 11:30:19;;;;;;;2.40;0.90;;;9.20;59.80;;;;;;4989932;28;20034;-40
2021/04/13 11:32:45;;;;;;;2.67;1.10;;;9.30;59.50;;;;;;4992089;28;20025;-37
2021/04/13 11:35:39;;;;;;;2.13;0.90;;;9.30;59.20;;;;;;4990609;28;20041;-38
2021/04/13 11:38:43;;;;;;;1.27;0.80;;;9.40;60.60;;;;;;4979291;28;20049;-38
2021/04/13 11:41:23;;;;;;;1.75;0.80;;;9.60;60.80;;;;;;4986970;28;20128;-40
2021/04/13 11:43:51;;;;;;;2.60;0.90;;;9.70;58.60;;;;;;4999284;28;20097;-38
2021/04/13 11:46:43;;;;;;;4.45;1.13;;;9.80;57.90;;;;;;4987402;28;20120;-39
2021/04/13 11:49:30;;;;;;;3.03;0.95;;;9.90;58.60;;;;;;4998600;28;20018;-39
2021/04/13 11:52:08;;;;;;;1.73;0.68;;;10.10;56.80;;;;;;5004041;28;20069;-39
2021/04/13 11:54:47;;;;;;;1.85;0.77;;;10.00;57.20;;;;;;4996442;28;20050;-37
2021/04/13 11:57:17;;;;;;;2.58;0.90;;;10.00;56.00;;;;;;4985952;28;20106;-38
2021/04/13 11:59:42;;;;;;;2.60;0.80;;;9.80;55.10;;;;;;4996298;28;20101;-39
2021/04/13 12:02:28;;;;;;;1.48;0.75;;;9.80;57.30;;;;;;4988457;28;20022;-38
2021/04/13 12:04:56;;;;;;;1.42;0.80;;;9.80;57.30;;;;;;4995032;28;20496;-38
2021/04/13 12:07:44;;;;;;;4.38;1.02;;;9.70;57.00;;;;;;5006781;28;20036;-38
2021/04/13 12:10:12;;;;;;;1.27;0.63;;;9.80;54.70;;;;;;4995003;28;20037;-38
2021/04/13 12:12:38;;;;;;;1.95;0.75;;;9.90;54.60;;;;;;5006139;28;20044;-39
2021/04/13 12:15:10;;;;;;;2.08;0.73;;;10.10;55.90;;;;;;4993491;28;20033;-38
2021/04/13 12:17:45;;;;;;;4.63;1.00;;;10.30;56.60;;;;;;5005963;28;20022;-38
2021/04/13 12:20:27;;;;;;;2.20;0.95;;;10.40;57.00;;;;;;5001788;28;20477;-38
2021/04/13 12:22:53;;;;;;;1.67;0.95;;;10.30;56.80;;;;;;4986013;28;20034;-39
2021/04/13 12:25:36;;;;;;;1.77;0.88;;;10.20;57.30;;;;;;4998631;28;20038;-39
2021/04/13 12:28:10;;;;;;;2.92;0.98;;;10.20;57.60;;;;;;4986448;28;20034;-36
2021/04/13 12:30:41;;;;;;;4.47;1.65;;;10.00;57.90;;;;;;4993034;28;20136;-38
2021/04/13 12:33:28;;;;;;;2.72;0.85;;;10.00;57.20;;;;;;5005863;28;20103;-38
2021/04/13 12:35:58;;;;;;;2.35;1.10;;;9.90;57.40;;;;;;4949654;28;20136;-36
2021/04/13 12:38:43;;;;;;;3.45;1.00;;;9.90;58.50;;;;;;5005798;28;20109;-40
2021/04/13 12:41:19;;;;;;;1.70;1.00;;;9.90;59.00;;;;;;4994505;28;20192;-39
2021/04/13 12:43:51;;;;;;;3.13;0.90;;;10.20;58.60;;;;;;4990475;28;20046;-38
2021/04/13 12:46:26;;;;;;;0.80;0.65;;;10.30;57.00;;;;;;4996860;28;20033;-38
2021/04/13 12:48:56;;;;;;;3.63;1.23;;;10.40;58.10;;;;;;4985979;28;20343;-38
2021/04/13 12:51:48;;;;;;;2.58;1.08;;;10.40;57.30;;;;;;4993883;28;20586;-38
2021/04/13 12:54:17;;;;;;;2.58;1.00;;;10.20;58.10;;;;;;4972914;28;20045;-41
2021/04/13 12:56:52;;;;;;;4.28;1.20;;;10.20;57.80;;;;;;4994264;28;20026;-39
2021/04/13 12:59:23;;;;;;;2.00;0.90;;;10.10;58.30;;;;;;5003795;28;20034;-38
2021/04/13 13:01:48;;;;;;;3.28;0.82;;;10.10;58.70;;;;;;4996247;28;20042;-39
2021/04/13 13:04:17;;;;;;;2.47;1.05;;;10.20;58.30;;;;;;4985813;28;20374;-38
2021/04/13 13:06:49;;;;;;;1.98;1.02;;;10.20;58.60;;;;;;4998210;28;20022;-39
2021/04/13 13:09:34;;;;;;;1.77;0.80;;;10.20;58.20;;;;;;5004718;28;20446;-39
2021/04/13 13:12:23;;;;;;;3.08;1.10;;;10.20;57.70;;;;;;5002224;28;20025;-40
2021/04/13 13:14:51;;;;;;;1.35;0.85;;;10.20;55.90;;;;;;5001773;28;20037;-38
2021/04/13 13:17:27;;;;;;;2.78;1.20;;;10.10;56.40;;;;;;4999461;28;20046;-37
2021/04/13 13:19:54;;;;;;;2.00;0.80;;;10.00;56.70;;;;;;5004070;28;20030;-39
2021/04/13 13:22:30;;;;;;;6.40;1.48;;;10.00;57.30;;;;;;4993342;28;20037;-39
2021/04/13 13:25:12;;;;;;;3.22;0.90;;;9.90;57.60;;;;;;5002856;28;20141;-36
2021/04/13 13:27:38;;;;;;;3.10;0.73;;;9.80;57.70;;;;;;4999624;28;20014;-39
2021/04/13 13:30:08;;;;;;;3.05;1.15;;;9.70;57.10;;;;;;4986019;28;20113;-39
2021/04/13 13:32:35;;;;;;;2.60;0.80;;;9.70;57.50;;;;;;5001052;28;20040;-38
2021/04/13 13:35:04;;;;;;;2.08;1.00;;;9.70;55.40;;;;;;4997674;28;20055;-38
2021/04/13 13:37:39;;;;;;;3.72;1.10;;;9.80;54.60;;;;;;4997270;28;20076;-39
2021/04/13 13:40:11;;;;;;;3.13;1.25;;;9.90;55.50;;;;;;5003845;28;20165;-37
2021/04/13 13:42:38;;;;;;;2.38;1.10;;;10.00;55.50;;;;;;4996397;28;20377;-38
2021/04/13 13:45:05;;;;;;;4.20;1.00;;;10.00;55.00;;;;;;5004112;28;20024;-39
2021/04/13 13:47:31;;;;;;;2.72;1.10;;;10.00;55.90;;;;;;4997504;28;20101;-40
2021/04/13 13:50:00;;;;;;;3.28;0.82;;;10.00;56.70;;;;;;5002447;28;20113;-39